Verner, Canada
Current Conditions -  °F | °C
As of 7:00 PM on Saturday 25 Oct 2014 (Local Time) from CYYB Reporting Station
Broken Clouds Broken Clouds  
Wind Chill: 52°   Ceiling: 4000
Heat Index: 52°   Visibility: 15mi
Dew Point: 39°   Wind: 12mph
Humidity: 62%   Direction: 290°WNW
Pressure: 29.46"   Gusts: 18mph
Location:  46.4°N, 80.12°W
Report Text: CYYB 252300Z 29010G16KT 15SM BKN040 BKN055 11/04 A2946 RMK SC5SC2 SLP984 DENSITY ALT 1400FT
Loading
Personal Weather Stations






























Interactive Weather Map
Tropical Storm Tracking
New forecast layout! Learn more

10-Day Weather Forecast

Advertisements
Track Severe Weather on mobile